map of MYR home
MYR - Airport
Location
City:  Myrtle Beach, South Carolina, United States
Name:Myrtle Beach International Airport
ICAO:KMYR
IATA:MYR
FAA LID:MYR

Details
Type:Airport (Part 139 Class I)
Use:Public/Civil
Latitude:3340'47"N (33.679750)
Longitude:7855'42"W (-78.928332)
Datum:WGS 1984
Elevation:24 ft (7 m)
Variation:8.70W (WMM2015v2 magnetic declination)
-0.03 annual change
Runways:1
Longest:9503 × 150 ft (2897 × 45.5 m), paved

Time
Time Zone:UTC-5 (DST-4)
Local Time:

Weather
METAR:KMYR 041356Z 32007KT 10SM CLR 10/06 A3006 RMK AO2 SLP181 T01000061
TAF:KMYR 041124Z 0412/0512 34010KT P6SM SKC
FM050000 31002KT P6SM SKC

Related Locations
Nearby:
Farthest:MQZ: 11638 mi / 18729 km
Margaret River [Margaret River Airport], WA, AU

Find:

   beyond  
but within

Other Information
Maps:
Delays:
NOTAMs:
Links:
Sources:

  
  • flag of United States
  • flag of South Carolina
  

Airport Diagram

Airport diagram for MYR

Airport diagram PDF from FAA

Sectional Chart

Flight Planning
at skyvector.com

Satellite Image

Google Maps Satellite view

 

Copyright © 2004-2019 Karl L. Swartz. All rights reserved.
The Great Circle Mapper name and logo are trademarks of the Great Circle Mapper.
All other trademarks mentioned herein belong to their respective owners.
Please see credits for attibutions and further copyright information.

  Follow gcmap on Facebook Follow gcmap on Twitter GCmap on LinkedIn

hCard Microformat

Geo Microformat